createdAt,value
2022-09-05T00:00:14.712Z,4.13
2022-09-05T00:03:04.040Z,4.95
2022-09-05T00:05:46.543Z,4.25
2022-09-05T00:08:52.856Z,4.30
2022-09-05T00:11:49.962Z,4.65
2022-09-05T00:15:14.310Z,4.45
2022-09-05T00:17:45.877Z,4.57
2022-09-05T00:24:36.940Z,4.43
2022-09-05T00:24:43.588Z,4.43
2022-09-05T00:27:09.698Z,4.60
2022-09-05T00:31:05.737Z,4.20
2022-09-05T00:32:43.924Z,4.93
2022-09-05T00:35:28.179Z,4.20
2022-09-05T00:37:57.654Z,5.00
2022-09-05T00:40:33.175Z,5.28
2022-09-05T00:43:13.878Z,4.75
2022-09-05T00:45:55.335Z,4.57
2022-09-05T00:48:51.042Z,5.05
2022-09-05T00:51:48.573Z,5.32
2022-09-05T00:54:47.201Z,5.75
2022-09-05T00:57:43.327Z,6.50
2022-09-05T01:00:17.812Z,4.55
2022-09-05T01:02:58.617Z,6.18
2022-09-05T01:06:15.983Z,5.10
2022-09-05T01:09:11.258Z,4.47
2022-09-05T01:11:51.971Z,5.15
2022-09-05T01:14:26.205Z,4.75
2022-09-05T01:17:22.052Z,4.47
2022-09-05T01:20:21.001Z,4.90
2022-09-05T01:23:08.541Z,4.47
2022-09-05T01:26:01.856Z,4.20
2022-09-05T01:29:16.218Z,4.50
2022-09-05T01:31:33.568Z,4.82
2022-09-05T01:34:31.444Z,5.20
2022-09-05T01:37:32.994Z,4.50
2022-09-05T01:40:25.062Z,4.50
2022-09-05T01:43:11.046Z,4.38
2022-09-05T01:46:20.573Z,4.85
2022-09-05T01:48:56.312Z,4.82
2022-09-05T01:51:46.805Z,4.90
2022-09-05T01:54:33.953Z,4.53
2022-09-05T01:57:08.436Z,4.88
2022-09-05T01:59:46.233Z,4.30
2022-09-05T02:02:36.317Z,4.88
2022-09-05T02:05:48.755Z,4.93
2022-09-05T02:08:35.558Z,4.50
2022-09-05T02:11:13.245Z,3.92
2022-09-05T02:13:50.503Z,4.22
2022-09-05T02:16:21.362Z,5.53
2022-09-05T02:19:04.494Z,4.93
2022-09-05T02:21:56.647Z,4.72
2022-09-05T02:24:37.015Z,5.33
2022-09-05T02:28:04.453Z,5.20
2022-09-05T02:30:47.544Z,4.78
2022-09-05T02:33:46.989Z,4.97
2022-09-05T02:36:35.286Z,5.13
2022-09-05T02:45:06.826Z,4.82
2022-09-05T02:45:12.504Z,5.07
2022-09-05T02:45:34.193Z,5.57
2022-09-05T02:48:15.725Z,6.10
2022-09-05T02:55:44.390Z,5.13
2022-09-05T02:57:34.406Z,5.75
2022-09-05T02:57:39.225Z,5.47
2022-09-05T03:00:19.698Z,6.15
2022-09-05T03:03:09.886Z,5.60
2022-09-05T03:05:40.874Z,5.38
2022-09-05T03:08:12.035Z,5.72
2022-09-05T03:10:54.458Z,5.90
2022-09-05T03:14:09.315Z,5.15
2022-09-05T03:16:55.582Z,5.38
2022-09-05T03:19:35.905Z,4.90
2022-09-05T03:23:04.128Z,5.35
2022-09-05T03:25:53.388Z,5.25
2022-09-05T03:29:15.492Z,6.60
2022-09-05T03:32:08.715Z,6.43
2022-09-05T03:34:48.320Z,7.05
2022-09-05T03:37:43.101Z,6.57
2022-09-05T03:40:25.763Z,6.63
2022-09-05T03:43:18.272Z,6.50
2022-09-05T03:46:14.966Z,6.88
2022-09-05T03:49:46.855Z,6.10
2022-09-05T03:57:05.648Z,6.53
2022-09-05T03:57:26.578Z,6.70
2022-09-05T03:58:16.805Z,7.13
2022-09-05T04:05:45.350Z,7.53
2022-09-05T04:08:10.455Z,7.25
2022-09-05T04:08:24.667Z,7.13
2022-09-05T04:10:36.812Z,7.47
2022-09-05T04:13:31.660Z,6.78
2022-09-05T04:16:12.571Z,7.25
2022-09-05T04:18:50.522Z,7.85
2022-09-05T04:21:29.927Z,7.15
2022-09-05T04:24:17.091Z,7.63
2022-09-05T04:27:03.697Z,7.82
2022-09-05T04:29:59.039Z,6.68
2022-09-05T04:32:57.818Z,7.25
2022-09-05T04:35:38.138Z,7.40
2022-09-05T04:38:06.330Z,7.10
2022-09-05T04:40:34.549Z,7.70
2022-09-05T04:43:35.709Z,8.00
2022-09-05T04:46:19.464Z,7.40
2022-09-05T04:49:17.154Z,7.43
2022-09-05T04:52:00.102Z,6.85
2022-09-05T04:54:43.802Z,7.40
2022-09-05T04:57:20.591Z,7.07
2022-09-05T05:06:04.779Z,7.57
2022-09-05T05:06:08.546Z,7.63
2022-09-05T05:06:09.427Z,7.00
2022-09-05T05:09:00.788Z,7.22
2022-09-05T05:17:47.918Z,7.97
2022-09-05T05:18:00.729Z,7.07
2022-09-05T05:18:42.295Z,7.68
2022-09-05T05:21:05.384Z,7.90
2022-09-05T05:23:50.880Z,6.97
2022-09-05T05:26:43.194Z,8.95
2022-09-05T05:29:23.088Z,7.65
2022-09-05T05:31:54.842Z,8.57
2022-09-05T05:34:46.334Z,8.75
2022-09-05T05:37:50.197Z,8.30
2022-09-05T05:40:18.756Z,8.45
2022-09-05T05:42:47.968Z,8.23
2022-09-05T05:45:26.798Z,8.18
2022-09-05T05:48:04.078Z,7.60
2022-09-05T05:50:52.885Z,8.27
2022-09-05T05:53:58.603Z,8.40
2022-09-05T05:56:48.312Z,7.82
2022-09-05T05:59:40.608Z,7.97
2022-09-05T06:02:46.173Z,7.47
2022-09-05T06:05:30.919Z,9.90
2022-09-05T06:13:03.597Z,9.93
2022-09-05T06:14:50.317Z,10.10
2022-09-05T06:14:59.174Z,9.20
2022-09-05T06:17:55.191Z,10.35
2022-09-05T06:22:07.805Z,9.57
2022-09-05T06:23:39.311Z,10.18
2022-09-05T06:26:36.043Z,10.27
2022-09-05T06:29:19.962Z,10.18
2022-09-05T06:32:09.258Z,8.98
2022-09-05T06:34:49.285Z,9.30
2022-09-05T06:37:53.160Z,10.10
2022-09-05T06:40:52.794Z,8.82
2022-09-05T06:43:45.874Z,10.10
2022-09-05T06:46:32.206Z,8.13
2022-09-05T06:49:28.958Z,8.45
2022-09-05T06:52:29.583Z,8.48
2022-09-05T06:55:15.867Z,9.00
2022-09-05T06:58:24.086Z,8.63
2022-09-05T07:01:01.338Z,8.10
2022-09-05T07:04:40.346Z,8.77
2022-09-05T07:07:06.866Z,8.48
2022-09-05T07:09:46.921Z,6.93
2022-09-05T07:12:27.813Z,7.45
2022-09-05T07:15:13.219Z,6.97
2022-09-05T07:18:11.084Z,6.88
2022-09-05T07:21:15.767Z,6.32
2022-09-05T07:24:10.977Z,8.50
2022-09-05T07:26:54.288Z,6.47
2022-09-05T07:32:01.962Z,6.60
2022-09-05T07:34:35.632Z,6.95
2022-09-05T07:37:30.735Z,5.45
2022-09-05T07:40:24.689Z,4.68
2022-09-05T07:43:12.055Z,4.13
2022-09-05T07:45:55.374Z,3.70
2022-09-05T07:48:34.827Z,4.00
2022-09-05T07:55:26.230Z,3.85
2022-09-05T07:56:48.887Z,3.78
2022-09-05T07:57:34.961Z,3.50
2022-09-05T08:00:26.057Z,3.53
2022-09-05T08:03:14.815Z,2.90
2022-09-05T08:05:45.830Z,4.22
2022-09-05T08:08:19.767Z,5.38
2022-09-05T08:11:22.629Z,4.22
2022-09-05T08:14:38.403Z,3.60
2022-09-05T08:16:49.084Z,3.78
2022-09-05T08:19:50.063Z,3.63
2022-09-05T08:22:24.875Z,3.88
2022-09-05T08:25:15.243Z,3.85
2022-09-05T08:27:58.789Z,4.13
2022-09-05T08:30:30.205Z,4.13
2022-09-05T08:33:11.000Z,3.65
2022-09-05T08:36:14.377Z,4.47
2022-09-05T08:38:44.302Z,4.05
2022-09-05T08:41:49.414Z,4.97
2022-09-05T08:46:46.591Z,4.15
2022-09-05T08:48:19.330Z,4.72
2022-09-05T08:51:05.473Z,4.60
2022-09-05T08:53:46.377Z,4.80
2022-09-05T08:56:22.744Z,5.70
2022-09-05T08:59:32.013Z,5.00
2022-09-05T09:02:45.660Z,4.57
2022-09-05T09:05:21.062Z,5.00
2022-09-05T09:07:51.874Z,5.05
2022-09-05T09:11:00.502Z,4.57
2022-09-05T09:13:54.526Z,4.82
2022-09-05T09:16:30.235Z,4.38
2022-09-05T09:19:12.530Z,5.03
2022-09-05T09:21:53.272Z,4.75
2022-09-05T09:25:15.464Z,4.78
2022-09-05T09:28:48.823Z,4.25
2022-09-05T09:31:14.997Z,5.47
2022-09-05T09:34:08.828Z,4.80
2022-09-05T09:37:21.793Z,5.30
2022-09-05T09:40:33.312Z,5.25
2022-09-05T09:43:20.494Z,4.72
2022-09-05T09:46:27.399Z,4.65
2022-09-05T09:49:25.680Z,5.32
2022-09-05T09:52:24.609Z,5.72
2022-09-05T09:55:17.427Z,6.72
2022-09-05T09:58:14.079Z,6.57
2022-09-05T10:00:53.940Z,6.72
2022-09-05T10:10:32.719Z,6.53
2022-09-05T10:11:09.345Z,6.03
2022-09-05T10:11:18.796Z,6.65
2022-09-05T10:14:00.468Z,6.88
2022-09-05T10:17:06.167Z,6.63
2022-09-05T10:20:09.583Z,7.10
2022-09-05T10:23:14.656Z,7.95
2022-09-05T10:26:02.091Z,6.70
2022-09-05T10:28:51.925Z,7.65
2022-09-05T10:32:59.485Z,5.68
2022-09-05T10:35:11.675Z,7.03
2022-09-05T10:37:18.564Z,5.57
2022-09-05T10:39:52.480Z,7.20
2022-09-05T10:42:20.959Z,7.35
2022-09-05T10:44:54.800Z,7.78
2022-09-05T10:47:49.256Z,8.05
2022-09-05T10:50:44.560Z,7.20
2022-09-05T10:53:26.359Z,7.18
2022-09-05T10:56:05.542Z,6.97
2022-09-05T11:02:15.730Z,6.10
2022-09-05T11:02:30.287Z,6.25
2022-09-05T11:05:05.580Z,6.43
2022-09-05T11:07:48.683Z,6.15
2022-09-05T11:10:31.425Z,5.78
2022-09-05T11:13:47.059Z,5.63
2022-09-05T11:16:34.826Z,6.45
2022-09-05T11:19:25.836Z,7.72
2022-09-05T11:22:22.003Z,6.15
2022-09-05T11:25:02.018Z,6.72
2022-09-05T11:27:44.308Z,6.40
2022-09-05T11:30:28.424Z,5.95
2022-09-05T11:39:19.294Z,5.65
2022-09-05T11:39:46.886Z,5.97
2022-09-05T11:39:56.264Z,5.40
2022-09-05T11:42:46.061Z,5.50
2022-09-05T11:45:31.834Z,6.03
2022-09-05T11:48:13.136Z,6.20
2022-09-05T11:51:02.331Z,4.68
2022-09-05T11:53:46.580Z,6.13
2022-09-05T11:56:48.873Z,6.15
2022-09-05T12:00:32.154Z,5.93
2022-09-05T12:03:09.564Z,4.93
2022-09-05T12:05:59.334Z,5.63
2022-09-05T12:08:43.963Z,7.75
2022-09-05T12:11:34.234Z,5.70
2022-09-05T12:14:29.806Z,6.63
2022-09-05T12:17:10.019Z,5.47
2022-09-05T12:19:47.321Z,6.40
2022-09-05T12:22:34.539Z,5.75
2022-09-05T12:26:26.800Z,5.68
2022-09-05T12:29:27.224Z,5.50
2022-09-05T12:32:48.341Z,5.90
2022-09-05T12:36:04.325Z,5.75
2022-09-05T12:40:25.374Z,4.82
2022-09-05T12:41:34.145Z,4.88
2022-09-05T12:44:36.653Z,4.72
2022-09-05T12:46:09.601Z,4.93
2022-09-05T12:49:11.710Z,4.10
2022-09-05T12:51:57.454Z,5.07
2022-09-05T12:54:45.831Z,5.00
2022-09-05T13:02:57.164Z,4.93
2022-09-05T13:03:14.547Z,4.60
2022-09-05T13:03:28.457Z,5.03
2022-09-05T13:06:09.477Z,4.63
2022-09-05T13:08:59.163Z,4.95
2022-09-05T13:14:54.538Z,4.32
2022-09-05T13:15:02.507Z,4.85
2022-09-05T13:17:50.572Z,4.72
2022-09-05T13:20:34.108Z,4.82
2022-09-05T13:23:27.472Z,4.72
2022-09-05T13:28:40.369Z,5.10
2022-09-05T13:36:20.820Z,5.65
2022-09-05T13:38:03.937Z,4.68
2022-09-05T13:38:29.359Z,5.03
2022-09-05T13:39:57.285Z,5.38
2022-09-05T13:42:31.884Z,5.35
2022-09-05T13:45:01.952Z,5.50
2022-09-05T13:47:52.917Z,5.38
2022-09-05T13:50:24.076Z,4.97
2022-09-05T13:53:19.659Z,4.35
2022-09-05T13:56:03.069Z,4.25
2022-09-05T13:58:57.655Z,4.75
2022-09-05T14:01:44.179Z,4.45
2022-09-05T14:07:59.068Z,5.53
2022-09-05T14:11:00.331Z,4.78
2022-09-05T14:14:15.847Z,5.05
2022-09-05T14:16:53.688Z,4.75
2022-09-05T14:19:43.573Z,4.30
2022-09-05T14:22:30.969Z,5.13
2022-09-05T14:25:00.393Z,5.03
2022-09-05T14:27:31.903Z,4.28
2022-09-05T14:30:54.120Z,3.93
2022-09-05T14:37:46.701Z,3.85
2022-09-05T14:37:52.921Z,4.53
2022-09-05T14:39:42.804Z,3.97
2022-09-05T14:42:23.983Z,4.43
2022-09-05T14:45:12.323Z,4.25
2022-09-05T14:47:58.375Z,4.95
2022-09-05T14:50:54.175Z,4.43
2022-09-05T14:57:35.640Z,4.82
2022-09-05T15:02:47.774Z,4.80
2022-09-05T15:02:53.440Z,4.60
2022-09-05T15:05:16.881Z,4.32
2022-09-05T15:07:50.634Z,5.05
2022-09-05T15:12:16.119Z,4.63
2022-09-05T15:13:25.915Z,4.72
2022-09-05T15:16:09.861Z,5.00
2022-09-05T15:18:43.324Z,4.40
2022-09-05T15:21:35.303Z,4.28
2022-09-05T15:24:27.908Z,4.80
2022-09-05T15:27:00.704Z,4.50
2022-09-05T15:29:31.781Z,4.32
2022-09-05T15:32:24.504Z,4.50
2022-09-05T15:34:59.089Z,4.37
2022-09-05T15:37:37.021Z,4.20
2022-09-05T15:40:21.824Z,4.13
2022-09-05T15:43:02.780Z,3.70
2022-09-05T15:45:37.283Z,4.28
2022-09-05T15:48:26.535Z,4.07
2022-09-05T15:51:17.721Z,4.43
2022-09-05T15:53:51.038Z,4.00
2022-09-05T15:56:21.303Z,4.28
2022-09-05T15:58:59.175Z,4.50
2022-09-05T16:01:58.583Z,4.32
2022-09-05T16:07:47.351Z,4.20
2022-09-05T16:10:42.219Z,4.47
2022-09-05T16:10:46.272Z,4.28
2022-09-05T16:13:19.159Z,4.00
2022-09-05T16:23:18.673Z,4.28
2022-09-05T16:23:27.597Z,4.10
2022-09-05T16:23:32.904Z,4.55
2022-09-05T16:25:00.852Z,4.28
2022-09-05T16:28:05.727Z,4.32
2022-09-05T16:30:37.221Z,4.63
2022-09-05T16:33:10.249Z,4.43
2022-09-05T16:38:33.192Z,4.45
2022-09-05T16:41:24.567Z,3.88
2022-09-05T16:44:00.400Z,3.30
2022-09-05T16:47:22.032Z,4.32
2022-09-05T16:50:16.682Z,3.53
2022-09-05T16:52:46.330Z,3.83
2022-09-05T16:55:40.503Z,3.72
2022-09-05T16:58:34.794Z,3.90
2022-09-05T17:01:24.776Z,4.65
2022-09-05T17:04:10.873Z,4.32
2022-09-05T17:06:59.427Z,3.78
2022-09-05T17:12:21.929Z,4.38
2022-09-05T17:14:57.826Z,4.07
2022-09-05T17:18:19.706Z,4.00
2022-09-05T17:20:51.151Z,4.30
2022-09-05T17:29:19.706Z,3.78
2022-09-05T17:29:24.041Z,4.35
2022-09-05T17:32:48.684Z,4.80
2022-09-05T17:35:36.189Z,3.72
2022-09-05T17:38:38.718Z,4.07
2022-09-05T17:41:31.863Z,4.07
2022-09-05T17:44:32.213Z,4.65
2022-09-05T17:47:15.224Z,4.53
2022-09-05T17:49:46.408Z,4.10
2022-09-05T17:52:18.230Z,4.65
2022-09-05T17:54:54.242Z,4.70
2022-09-05T17:57:28.307Z,4.32
2022-09-05T18:00:11.277Z,5.05
2022-09-05T18:02:56.442Z,5.30
2022-09-05T18:05:56.875Z,4.57
2022-09-05T18:08:46.418Z,5.40
2022-09-05T18:11:25.329Z,4.45
2022-09-05T18:14:25.215Z,4.65
2022-09-05T18:17:37.775Z,4.30
2022-09-05T18:19:44.077Z,4.72
2022-09-05T18:22:33.705Z,4.55
2022-09-05T18:25:30.572Z,4.80
2022-09-05T18:28:31.553Z,4.82
2022-09-05T18:31:40.805Z,5.63
2022-09-05T18:34:16.411Z,4.53
2022-09-05T18:36:53.951Z,5.00
2022-09-05T18:39:27.078Z,5.20
2022-09-05T18:42:26.023Z,4.75
2022-09-05T18:45:15.180Z,4.90
2022-09-05T18:47:59.239Z,5.10
2022-09-05T18:50:34.880Z,4.80
2022-09-05T18:53:09.021Z,5.60
2022-09-05T18:56:13.952Z,5.43
2022-09-05T18:59:09.964Z,5.07
2022-09-05T19:01:48.461Z,4.90
2022-09-05T19:04:46.325Z,4.90
2022-09-05T19:07:24.317Z,5.30
2022-09-05T19:10:35.948Z,5.30
2022-09-05T19:13:32.193Z,5.10
2022-09-05T19:16:42.214Z,5.85
2022-09-05T19:19:16.051Z,5.40
2022-09-05T19:22:02.445Z,5.70
2022-09-05T19:24:45.750Z,5.82
2022-09-05T19:30:53.729Z,5.82
2022-09-05T19:36:49.316Z,5.28
2022-09-05T19:37:03.123Z,5.40
2022-09-05T19:37:05.921Z,5.95
2022-09-05T19:38:56.698Z,5.18
2022-09-05T19:47:10.970Z,5.68
2022-09-05T19:47:44.915Z,4.97
2022-09-05T19:50:26.654Z,4.85
2022-09-05T19:53:08.369Z,4.78
2022-09-05T19:55:38.579Z,4.88
2022-09-05T19:58:19.459Z,5.05
2022-09-05T20:01:02.250Z,5.55
2022-09-05T20:03:38.464Z,4.63
2022-09-05T20:06:38.654Z,4.57
2022-09-05T20:09:21.911Z,4.93
2022-09-05T20:11:54.728Z,5.22
2022-09-05T20:14:31.506Z,5.55
2022-09-05T20:17:21.990Z,5.05
2022-09-05T20:20:07.609Z,4.65
2022-09-05T20:22:49.265Z,4.78
2022-09-05T20:25:47.202Z,5.20
2022-09-05T20:28:22.020Z,5.28
2022-09-05T20:30:56.159Z,5.20
2022-09-05T20:33:31.692Z,5.13
2022-09-05T20:43:10.557Z,5.50
2022-09-05T20:43:17.839Z,5.80
2022-09-05T20:43:23.017Z,5.18
2022-09-05T20:44:50.596Z,5.70
2022-09-05T20:50:47.059Z,5.65
2022-09-05T20:54:14.876Z,5.82
2022-09-05T20:54:17.380Z,5.78
2022-09-05T20:56:23.634Z,5.80
2022-09-05T20:58:55.636Z,6.05
2022-09-05T21:01:25.370Z,5.53
2022-09-05T21:04:05.496Z,5.43
2022-09-05T21:06:36.107Z,6.30
2022-09-05T21:09:24.845Z,5.80
2022-09-05T21:11:59.878Z,4.97
2022-09-05T21:14:29.348Z,4.60
2022-09-05T21:17:15.040Z,5.57
2022-09-05T21:19:53.785Z,4.78
2022-09-05T21:22:25.083Z,5.10
2022-09-05T21:25:43.915Z,4.85
2022-09-05T21:28:36.290Z,4.57
2022-09-05T21:31:14.640Z,4.95
2022-09-05T21:33:46.262Z,5.10
2022-09-05T21:36:15.658Z,5.38
2022-09-05T21:38:44.345Z,4.88
2022-09-05T21:41:16.208Z,4.68
2022-09-05T21:47:35.794Z,4.97
2022-09-05T21:47:40.213Z,4.68
2022-09-05T21:49:34.850Z,8.50
2022-09-05T21:52:07.419Z,5.13
2022-09-05T21:59:17.093Z,4.90
2022-09-05T21:59:20.062Z,4.80
2022-09-05T22:00:20.965Z,5.00
2022-09-05T22:02:49.716Z,5.75
2022-09-05T22:05:20.208Z,5.70
2022-09-05T22:07:54.425Z,5.35
2022-09-05T22:10:51.862Z,4.93
2022-09-05T22:13:13.876Z,5.32
2022-09-05T22:15:42.219Z,4.95
2022-09-05T22:18:17.593Z,5.32
2022-09-05T22:21:33.373Z,6.10
2022-09-05T22:26:14.184Z,4.90
2022-09-05T22:28:48.943Z,5.57
2022-09-05T22:31:18.796Z,5.22
2022-09-05T22:33:50.620Z,5.05
2022-09-05T22:36:19.763Z,5.03
2022-09-05T22:38:48.126Z,5.03
2022-09-05T22:41:16.398Z,4.63
2022-09-05T22:43:48.373Z,4.60
2022-09-05T22:46:16.843Z,5.13
2022-09-05T22:48:45.022Z,4.57
2022-09-05T22:51:13.434Z,5.07
2022-09-05T22:53:41.578Z,4.22
2022-09-05T22:56:10.868Z,5.07
2022-09-05T22:58:44.806Z,4.90
2022-09-05T23:01:13.156Z,4.45
2022-09-05T23:03:41.380Z,5.57
2022-09-05T23:06:10.459Z,5.18
2022-09-05T23:08:39.663Z,5.35
2022-09-05T23:11:13.662Z,4.72
2022-09-05T23:13:42.776Z,5.07
2022-09-05T23:16:11.560Z,4.75
2022-09-05T23:18:40.117Z,4.75
2022-09-05T23:21:11.197Z,4.70
2022-09-05T23:23:41.346Z,5.03
2022-09-05T23:26:11.948Z,4.93
2022-09-05T23:28:43.279Z,4.70
2022-09-05T23:31:12.709Z,5.10
2022-09-05T23:33:41.956Z,4.65
2022-09-05T23:36:13.763Z,4.65
2022-09-05T23:38:42.818Z,5.55
2022-09-05T23:41:13.503Z,5.38
2022-09-05T23:43:41.680Z,4.90
2022-09-05T23:46:10.309Z,5.15
2022-09-05T23:48:38.855Z,4.40
2022-09-05T23:51:09.345Z,5.30
2022-09-05T23:53:38.099Z,5.22
2022-09-05T23:56:08.569Z,4.70
2022-09-05T23:58:37.405Z,4.88
